sensor_id;sensor_type;location;lat;lon;timestamp;P1;durP1;ratioP1;P2;durP2;ratioP2
12990;SDS011;6560;57.692;11.958;2023-04-23T00:01:15;4.40;;;2.60;;
12990;SDS011;6560;57.692;11.958;2023-04-23T00:03:44;4.97;;;2.27;;
12990;SDS011;6560;57.692;11.958;2023-04-23T00:06:13;3.00;;;2.17;;
12990;SDS011;6560;57.692;11.958;2023-04-23T00:08:41;3.40;;;2.43;;
12990;SDS011;6560;57.692;11.958;2023-04-23T00:11:07;2.40;;;2.07;;
12990;SDS011;6560;57.692;11.958;2023-04-23T00:13:34;7.87;;;2.93;;
12990;SDS011;6560;57.692;11.958;2023-04-23T00:16:00;4.67;;;2.27;;
12990;SDS011;6560;57.692;11.958;2023-04-23T00:18:28;3.40;;;1.80;;
12990;SDS011;6560;57.692;11.958;2023-04-23T00:20:53;2.93;;;2.10;;
12990;SDS011;6560;57.692;11.958;2023-04-23T00:23:21;2.13;;;1.93;;
12990;SDS011;6560;57.692;11.958;2023-04-23T00:25:46;5.10;;;2.57;;
12990;SDS011;6560;57.692;11.958;2023-04-23T00:28:12;2.70;;;2.27;;
12990;SDS011;6560;57.692;11.958;2023-04-23T00:30:38;3.00;;;2.43;;
12990;SDS011;6560;57.692;11.958;2023-04-23T00:33:03;4.20;;;1.93;;
12990;SDS011;6560;57.692;11.958;2023-04-23T00:35:29;3.43;;;2.23;;
12990;SDS011;6560;57.692;11.958;2023-04-23T00:37:55;2.27;;;2.00;;
12990;SDS011;6560;57.692;11.958;2023-04-23T00:40:21;1.90;;;1.73;;
12990;SDS011;6560;57.692;11.958;2023-04-23T00:42:49;5.83;;;2.30;;
12990;SDS011;6560;57.692;11.958;2023-04-23T00:45:35;2.97;;;2.50;;
12990;SDS011;6560;57.692;11.958;2023-04-23T00:48:01;4.13;;;2.30;;
12990;SDS011;6560;57.692;11.958;2023-04-23T00:50:28;3.47;;;2.53;;
12990;SDS011;6560;57.692;11.958;2023-04-23T00:53:01;3.57;;;2.60;;
12990;SDS011;6560;57.692;11.958;2023-04-23T00:55:26;4.33;;;2.90;;
12990;SDS011;6560;57.692;11.958;2023-04-23T00:57:52;3.60;;;2.47;;
12990;SDS011;6560;57.692;11.958;2023-04-23T01:00:19;5.67;;;2.60;;
12990;SDS011;6560;57.692;11.958;2023-04-23T01:02:44;2.10;;;1.90;;
12990;SDS011;6560;57.692;11.958;2023-04-23T01:05:12;2.73;;;2.50;;
12990;SDS011;6560;57.692;11.958;2023-04-23T01:07:40;3.17;;;2.57;;
12990;SDS011;6560;57.692;11.958;2023-04-23T01:10:06;5.20;;;2.90;;
12990;SDS011;6560;57.692;11.958;2023-04-23T01:12:33;7.97;;;3.10;;
12990;SDS011;6560;57.692;11.958;2023-04-23T01:14:58;3.80;;;2.43;;
12990;SDS011;6560;57.692;11.958;2023-04-23T01:17:24;6.17;;;2.93;;
12990;SDS011;6560;57.692;11.958;2023-04-23T01:19:52;4.20;;;3.47;;
12990;SDS011;6560;57.692;11.958;2023-04-23T01:22:19;6.97;;;3.30;;
12990;SDS011;6560;57.692;11.958;2023-04-23T01:24:45;5.47;;;3.73;;
12990;SDS011;6560;57.692;11.958;2023-04-23T01:27:11;3.87;;;3.47;;
12990;SDS011;6560;57.692;11.958;2023-04-23T01:29:37;3.43;;;3.13;;
12990;SDS011;6560;57.692;11.958;2023-04-23T01:32:06;3.80;;;3.20;;
12990;SDS011;6560;57.692;11.958;2023-04-23T01:34:32;3.77;;;3.20;;
12990;SDS011;6560;57.692;11.958;2023-04-23T01:36:59;3.70;;;3.17;;
12990;SDS011;6560;57.692;11.958;2023-04-23T01:39:27;3.93;;;2.90;;
12990;SDS011;6560;57.692;11.958;2023-04-23T01:41:53;3.70;;;3.40;;
12990;SDS011;6560;57.692;11.958;2023-04-23T01:44:18;3.10;;;2.67;;
12990;SDS011;6560;57.692;11.958;2023-04-23T01:46:44;3.87;;;3.00;;
12990;SDS011;6560;57.692;11.958;2023-04-23T01:49:11;4.93;;;2.90;;
12990;SDS011;6560;57.692;11.958;2023-04-23T01:51:37;3.60;;;2.60;;
12990;SDS011;6560;57.692;11.958;2023-04-23T01:54:02;5.00;;;3.00;;
12990;SDS011;6560;57.692;11.958;2023-04-23T01:56:29;5.27;;;3.30;;
12990;SDS011;6560;57.692;11.958;2023-04-23T01:58:57;3.90;;;3.13;;
12990;SDS011;6560;57.692;11.958;2023-04-23T02:01:39;4.70;;;3.03;;
12990;SDS011;6560;57.692;11.958;2023-04-23T02:04:09;4.03;;;2.70;;
12990;SDS011;6560;57.692;11.958;2023-04-23T02:07:04;2.70;;;2.50;;
12990;SDS011;6560;57.692;11.958;2023-04-23T02:09:34;2.60;;;2.40;;
12990;SDS011;6560;57.692;11.958;2023-04-23T02:12:00;3.90;;;2.63;;
12990;SDS011;6560;57.692;11.958;2023-04-23T02:14:26;6.63;;;2.87;;
12990;SDS011;6560;57.692;11.958;2023-04-23T02:16:52;6.00;;;2.80;;
12990;SDS011;6560;57.692;11.958;2023-04-23T02:19:18;4.43;;;3.10;;
12990;SDS011;6560;57.692;11.958;2023-04-23T02:21:43;2.97;;;2.67;;
12990;SDS011;6560;57.692;11.958;2023-04-23T02:24:09;4.53;;;2.53;;
12990;SDS011;6560;57.692;11.958;2023-04-23T02:26:35;4.87;;;2.53;;
12990;SDS011;6560;57.692;11.958;2023-04-23T02:29:04;2.70;;;2.50;;
12990;SDS011;6560;57.692;11.958;2023-04-23T02:31:30;2.43;;;2.23;;
12990;SDS011;6560;57.692;11.958;2023-04-23T02:33:55;2.77;;;2.43;;
12990;SDS011;6560;57.692;11.958;2023-04-23T02:36:21;4.07;;;2.87;;
12990;SDS011;6560;57.692;11.958;2023-04-23T02:38:46;3.00;;;2.70;;
12990;SDS011;6560;57.692;11.958;2023-04-23T02:41:15;2.73;;;2.53;;
12990;SDS011;6560;57.692;11.958;2023-04-23T02:43:40;3.47;;;2.13;;
12990;SDS011;6560;57.692;11.958;2023-04-23T02:46:07;3.70;;;2.70;;
12990;SDS011;6560;57.692;11.958;2023-04-23T02:48:35;4.03;;;2.70;;
12990;SDS011;6560;57.692;11.958;2023-04-23T02:51:10;3.73;;;2.90;;
12990;SDS011;6560;57.692;11.958;2023-04-23T02:53:40;5.00;;;3.07;;
12990;SDS011;6560;57.692;11.958;2023-04-23T02:56:05;4.70;;;2.77;;
12990;SDS011;6560;57.692;11.958;2023-04-23T02:58:33;3.03;;;2.60;;
12990;SDS011;6560;57.692;11.958;2023-04-23T03:00:59;3.70;;;2.67;;
12990;SDS011;6560;57.692;11.958;2023-04-23T03:03:26;3.17;;;2.83;;
12990;SDS011;6560;57.692;11.958;2023-04-23T03:05:55;6.53;;;2.23;;
12990;SDS011;6560;57.692;11.958;2023-04-23T03:08:23;5.03;;;2.70;;
12990;SDS011;6560;57.692;11.958;2023-04-23T03:10:49;3.43;;;2.70;;
12990;SDS011;6560;57.692;11.958;2023-04-23T03:13:14;3.77;;;2.30;;
12990;SDS011;6560;57.692;11.958;2023-04-23T03:15:40;2.90;;;2.10;;
12990;SDS011;6560;57.692;11.958;2023-04-23T03:18:06;3.97;;;2.77;;
12990;SDS011;6560;57.692;11.958;2023-04-23T03:20:35;8.03;;;2.23;;
12990;SDS011;6560;57.692;11.958;2023-04-23T03:23:01;4.97;;;2.67;;
12990;SDS011;6560;57.692;11.958;2023-04-23T03:25:31;4.67;;;2.50;;
12990;SDS011;6560;57.692;11.958;2023-04-23T03:27:59;9.37;;;2.70;;
12990;SDS011;6560;57.692;11.958;2023-04-23T03:30:31;3.97;;;2.97;;
12990;SDS011;6560;57.692;11.958;2023-04-23T03:32:58;4.20;;;2.50;;
12990;SDS011;6560;57.692;11.958;2023-04-23T03:35:24;2.67;;;2.47;;
12990;SDS011;6560;57.692;11.958;2023-04-23T03:37:50;5.97;;;2.60;;
12990;SDS011;6560;57.692;11.958;2023-04-23T03:40:19;2.53;;;2.33;;
12990;SDS011;6560;57.692;11.958;2023-04-23T03:42:45;3.17;;;2.53;;
12990;SDS011;6560;57.692;11.958;2023-04-23T03:45:15;5.33;;;3.10;;
12990;SDS011;6560;57.692;11.958;2023-04-23T03:47:41;5.97;;;2.60;;
12990;SDS011;6560;57.692;11.958;2023-04-23T03:50:10;2.90;;;2.17;;
12990;SDS011;6560;57.692;11.958;2023-04-23T03:52:39;3.30;;;2.70;;
12990;SDS011;6560;57.692;11.958;2023-04-23T03:55:05;2.90;;;2.60;;
12990;SDS011;6560;57.692;11.958;2023-04-23T03:57:31;4.53;;;3.10;;
12990;SDS011;6560;57.692;11.958;2023-04-23T03:59:58;2.87;;;2.67;;
12990;SDS011;6560;57.692;11.958;2023-04-23T04:02:24;3.67;;;2.77;;
12990;SDS011;6560;57.692;11.958;2023-04-23T04:04:50;3.70;;;2.60;;
12990;SDS011;6560;57.692;11.958;2023-04-23T04:07:15;4.57;;;3.27;;
12990;SDS011;6560;57.692;11.958;2023-04-23T04:09:42;3.13;;;2.83;;
12990;SDS011;6560;57.692;11.958;2023-04-23T04:12:11;3.40;;;2.83;;
12990;SDS011;6560;57.692;11.958;2023-04-23T04:14:37;5.27;;;3.07;;
12990;SDS011;6560;57.692;11.958;2023-04-23T04:17:02;3.57;;;2.70;;
12990;SDS011;6560;57.692;11.958;2023-04-23T04:19:28;3.83;;;2.40;;
12990;SDS011;6560;57.692;11.958;2023-04-23T04:21:53;3.80;;;2.83;;
12990;SDS011;6560;57.692;11.958;2023-04-23T04:24:20;7.37;;;3.50;;
12990;SDS011;6560;57.692;11.958;2023-04-23T04:26:47;3.07;;;2.53;;
12990;SDS011;6560;57.692;11.958;2023-04-23T04:29:13;3.80;;;3.40;;
12990;SDS011;6560;57.692;11.958;2023-04-23T04:31:39;3.50;;;2.80;;
12990;SDS011;6560;57.692;11.958;2023-04-23T04:34:06;3.57;;;3.23;;
12990;SDS011;6560;57.692;11.958;2023-04-23T04:36:34;3.77;;;3.07;;
12990;SDS011;6560;57.692;11.958;2023-04-23T04:39:00;3.40;;;2.80;;
12990;SDS011;6560;57.692;11.958;2023-04-23T04:41:28;3.50;;;3.00;;
12990;SDS011;6560;57.692;11.958;2023-04-23T04:43:54;4.93;;;2.90;;
12990;SDS011;6560;57.692;11.958;2023-04-23T04:46:20;4.30;;;3.17;;
12990;SDS011;6560;57.692;11.958;2023-04-23T04:48:46;4.73;;;3.17;;
12990;SDS011;6560;57.692;11.958;2023-04-23T04:51:12;6.93;;;3.73;;
12990;SDS011;6560;57.692;11.958;2023-04-23T04:53:38;4.13;;;3.33;;
12990;SDS011;6560;57.692;11.958;2023-04-23T04:56:04;5.27;;;3.60;;
12990;SDS011;6560;57.692;11.958;2023-04-23T04:58:30;4.30;;;3.70;;
12990;SDS011;6560;57.692;11.958;2023-04-23T05:01:04;3.03;;;2.83;;
12990;SDS011;6560;57.692;11.958;2023-04-23T05:03:33;3.87;;;3.40;;
12990;SDS011;6560;57.692;11.958;2023-04-23T05:06:34;5.27;;;4.37;;
12990;SDS011;6560;57.692;11.958;2023-04-23T05:09:00;8.63;;;4.50;;
12990;SDS011;6560;57.692;11.958;2023-04-23T05:11:36;8.53;;;4.77;;
12990;SDS011;6560;57.692;11.958;2023-04-23T05:14:46;5.27;;;4.73;;
12990;SDS011;6560;57.692;11.958;2023-04-23T05:17:48;7.27;;;4.73;;
12990;SDS011;6560;57.692;11.958;2023-04-23T05:20:17;5.57;;;4.10;;
12990;SDS011;6560;57.692;11.958;2023-04-23T05:22:44;4.47;;;4.07;;
12990;SDS011;6560;57.692;11.958;2023-04-23T05:25:12;8.37;;;4.73;;
12990;SDS011;6560;57.692;11.958;2023-04-23T05:27:40;4.70;;;4.23;;
12990;SDS011;6560;57.692;11.958;2023-04-23T05:30:10;4.93;;;4.43;;
12990;SDS011;6560;57.692;11.958;2023-04-23T05:32:42;7.57;;;4.13;;
12990;SDS011;6560;57.692;11.958;2023-04-23T05:35:30;4.93;;;4.43;;
12990;SDS011;6560;57.692;11.958;2023-04-23T05:38:03;5.50;;;4.87;;
12990;SDS011;6560;57.692;11.958;2023-04-23T05:40:32;5.10;;;4.23;;
12990;SDS011;6560;57.692;11.958;2023-04-23T05:44:09;6.60;;;4.97;;
12990;SDS011;6560;57.692;11.958;2023-04-23T05:46:38;6.73;;;5.57;;
12990;SDS011;6560;57.692;11.958;2023-04-23T05:49:08;7.67;;;6.30;;
12990;SDS011;6560;57.692;11.958;2023-04-23T05:51:33;7.30;;;6.07;;
12990;SDS011;6560;57.692;11.958;2023-04-23T05:54:00;8.73;;;6.63;;
12990;SDS011;6560;57.692;11.958;2023-04-23T05:56:25;8.77;;;6.33;;
12990;SDS011;6560;57.692;11.958;2023-04-23T05:58:59;14.97;;;7.20;;
12990;SDS011;6560;57.692;11.958;2023-04-23T06:01:26;10.20;;;7.37;;
12990;SDS011;6560;57.692;11.958;2023-04-23T06:03:51;11.33;;;7.40;;
12990;SDS011;6560;57.692;11.958;2023-04-23T06:06:17;10.50;;;8.00;;
12990;SDS011;6560;57.692;11.958;2023-04-23T06:08:42;11.80;;;7.07;;
12990;SDS011;6560;57.692;11.958;2023-04-23T06:11:08;9.10;;;7.47;;
12990;SDS011;6560;57.692;11.958;2023-04-23T06:13:35;7.50;;;6.67;;
12990;SDS011;6560;57.692;11.958;2023-04-23T06:16:05;10.37;;;7.53;;
12990;SDS011;6560;57.692;11.958;2023-04-23T06:18:33;10.80;;;8.40;;
12990;SDS011;6560;57.692;11.958;2023-04-23T06:21:03;8.73;;;7.33;;
12990;SDS011;6560;57.692;11.958;2023-04-23T06:24:11;9.50;;;7.77;;
12990;SDS011;6560;57.692;11.958;2023-04-23T06:26:36;10.47;;;8.60;;
12990;SDS011;6560;57.692;11.958;2023-04-23T06:29:02;12.10;;;9.20;;
12990;SDS011;6560;57.692;11.958;2023-04-23T06:31:28;11.80;;;9.70;;
12990;SDS011;6560;57.692;11.958;2023-04-23T06:33:54;12.30;;;8.80;;
12990;SDS011;6560;57.692;11.958;2023-04-23T06:36:19;19.33;;;8.87;;
12990;SDS011;6560;57.692;11.958;2023-04-23T06:38:46;13.33;;;8.73;;
12990;SDS011;6560;57.692;11.958;2023-04-23T06:41:18;19.90;;;10.30;;
12990;SDS011;6560;57.692;11.958;2023-04-23T06:43:45;14.30;;;9.37;;
12990;SDS011;6560;57.692;11.958;2023-04-23T06:46:12;13.23;;;9.77;;
12990;SDS011;6560;57.692;11.958;2023-04-23T06:48:38;13.80;;;9.07;;
12990;SDS011;6560;57.692;11.958;2023-04-23T06:51:04;10.93;;;9.73;;
12990;SDS011;6560;57.692;11.958;2023-04-23T06:53:43;10.43;;;9.30;;
12990;SDS011;6560;57.692;11.958;2023-04-23T06:56:09;12.67;;;9.63;;
12990;SDS011;6560;57.692;11.958;2023-04-23T06:58:35;13.40;;;9.80;;
12990;SDS011;6560;57.692;11.958;2023-04-23T07:01:00;11.20;;;8.77;;
12990;SDS011;6560;57.692;11.958;2023-04-23T07:03:31;11.40;;;9.20;;
12990;SDS011;6560;57.692;11.958;2023-04-23T07:05:57;11.80;;;9.20;;
12990;SDS011;6560;57.692;11.958;2023-04-23T07:08:23;12.80;;;9.73;;
12990;SDS011;6560;57.692;11.958;2023-04-23T07:10:50;11.57;;;8.67;;
12990;SDS011;6560;57.692;11.958;2023-04-23T07:16:25;13.63;;;9.87;;
12990;SDS011;6560;57.692;11.958;2023-04-23T07:18:57;13.13;;;9.93;;
12990;SDS011;6560;57.692;11.958;2023-04-23T07:21:24;12.30;;;9.97;;
12990;SDS011;6560;57.692;11.958;2023-04-23T07:23:54;14.70;;;9.87;;
12990;SDS011;6560;57.692;11.958;2023-04-23T07:26:20;12.20;;;9.67;;
12990;SDS011;6560;57.692;11.958;2023-04-23T07:28:46;14.23;;;10.07;;
12990;SDS011;6560;57.692;11.958;2023-04-23T07:31:12;12.33;;;9.57;;
12990;SDS011;6560;57.692;11.958;2023-04-23T07:33:38;11.83;;;9.80;;
12990;SDS011;6560;57.692;11.958;2023-04-23T07:36:04;12.63;;;9.80;;
12990;SDS011;6560;57.692;11.958;2023-04-23T07:38:30;15.37;;;10.97;;
12990;SDS011;6560;57.692;11.958;2023-04-23T07:40:55;13.40;;;10.77;;
12990;SDS011;6560;57.692;11.958;2023-04-23T07:43:21;14.83;;;12.03;;
12990;SDS011;6560;57.692;11.958;2023-04-23T07:45:47;15.47;;;11.87;;
12990;SDS011;6560;57.692;11.958;2023-04-23T07:48:12;14.53;;;11.03;;
12990;SDS011;6560;57.692;11.958;2023-04-23T07:50:39;16.70;;;12.20;;
12990;SDS011;6560;57.692;11.958;2023-04-23T07:53:05;19.07;;;12.43;;
12990;SDS011;6560;57.692;11.958;2023-04-23T07:55:32;19.73;;;13.33;;
12990;SDS011;6560;57.692;11.958;2023-04-23T07:57:58;31.03;;;16.10;;
12990;SDS011;6560;57.692;11.958;2023-04-23T08:00:23;18.73;;;15.20;;
12990;SDS011;6560;57.692;11.958;2023-04-23T08:02:49;24.33;;;16.83;;
12990;SDS011;6560;57.692;11.958;2023-04-23T08:05:15;29.60;;;18.57;;
12990;SDS011;6560;57.692;11.958;2023-04-23T08:07:47;31.97;;;19.20;;
12990;SDS011;6560;57.692;11.958;2023-04-23T08:10:13;22.83;;;19.07;;
12990;SDS011;6560;57.692;11.958;2023-04-23T08:12:39;38.00;;;23.07;;
12990;SDS011;6560;57.692;11.958;2023-04-23T08:15:07;31.33;;;23.77;;
12990;SDS011;6560;57.692;11.958;2023-04-23T08:17:37;34.93;;;24.00;;
12990;SDS011;6560;57.692;11.958;2023-04-23T08:20:03;32.07;;;22.37;;
12990;SDS011;6560;57.692;11.958;2023-04-23T08:22:33;36.03;;;24.77;;
12990;SDS011;6560;57.692;11.958;2023-04-23T08:24:59;36.10;;;22.90;;
12990;SDS011;6560;57.692;11.958;2023-04-23T08:27:25;32.13;;;21.83;;
12990;SDS011;6560;57.692;11.958;2023-04-23T08:29:50;29.83;;;22.47;;
12990;SDS011;6560;57.692;11.958;2023-04-23T08:32:16;32.57;;;23.73;;
12990;SDS011;6560;57.692;11.958;2023-04-23T08:34:43;32.17;;;22.90;;
12990;SDS011;6560;57.692;11.958;2023-04-23T08:37:08;26.63;;;20.83;;
12990;SDS011;6560;57.692;11.958;2023-04-23T08:39:35;34.43;;;24.33;;
12990;SDS011;6560;57.692;11.958;2023-04-23T08:42:04;32.43;;;25.10;;
12990;SDS011;6560;57.692;11.958;2023-04-23T08:44:37;36.97;;;27.37;;
12990;SDS011;6560;57.692;11.958;2023-04-23T08:47:05;27.70;;;24.63;;
12990;SDS011;6560;57.692;11.958;2023-04-23T08:49:32;28.77;;;23.27;;
12990;SDS011;6560;57.692;11.958;2023-04-23T08:52:07;26.43;;;22.83;;
12990;SDS011;6560;57.692;11.958;2023-04-23T08:54:40;25.93;;;23.13;;
12990;SDS011;6560;57.692;11.958;2023-04-23T08:57:10;29.07;;;22.93;;
12990;SDS011;6560;57.692;11.958;2023-04-23T08:59:36;28.87;;;22.67;;
12990;SDS011;6560;57.692;11.958;2023-04-23T09:02:03;28.43;;;23.00;;
12990;SDS011;6560;57.692;11.958;2023-04-23T09:04:34;23.77;;;19.17;;
12990;SDS011;6560;57.692;11.958;2023-04-23T09:07:00;23.00;;;20.60;;
12990;SDS011;6560;57.692;11.958;2023-04-23T09:09:26;21.20;;;18.10;;
12990;SDS011;6560;57.692;11.958;2023-04-23T09:11:54;24.63;;;18.53;;
12990;SDS011;6560;57.692;11.958;2023-04-23T09:14:21;21.23;;;18.67;;
12990;SDS011;6560;57.692;11.958;2023-04-23T09:16:50;19.33;;;17.23;;
12990;SDS011;6560;57.692;11.958;2023-04-23T09:19:17;17.57;;;15.40;;
12990;SDS011;6560;57.692;11.958;2023-04-23T09:21:43;16.37;;;14.33;;
12990;SDS011;6560;57.692;11.958;2023-04-23T09:24:11;16.37;;;13.17;;
12990;SDS011;6560;57.692;11.958;2023-04-23T09:26:47;14.90;;;13.13;;
12990;SDS011;6560;57.692;11.958;2023-04-23T09:29:18;13.43;;;11.37;;
12990;SDS011;6560;57.692;11.958;2023-04-23T09:31:48;13.63;;;11.53;;
12990;SDS011;6560;57.692;11.958;2023-04-23T09:34:16;14.03;;;11.30;;
12990;SDS011;6560;57.692;11.958;2023-04-23T09:36:46;13.40;;;10.27;;
12990;SDS011;6560;57.692;11.958;2023-04-23T09:39:17;12.60;;;10.50;;
12990;SDS011;6560;57.692;11.958;2023-04-23T09:41:44;10.87;;;9.73;;
12990;SDS011;6560;57.692;11.958;2023-04-23T09:44:10;12.90;;;9.83;;
12990;SDS011;6560;57.692;11.958;2023-04-23T09:46:39;12.07;;;9.63;;
12990;SDS011;6560;57.692;11.958;2023-04-23T09:49:07;11.33;;;9.40;;
12990;SDS011;6560;57.692;11.958;2023-04-23T09:51:38;10.50;;;8.30;;
12990;SDS011;6560;57.692;11.958;2023-04-23T09:54:10;10.67;;;7.83;;
12990;SDS011;6560;57.692;11.958;2023-04-23T09:56:40;8.00;;;7.23;;
12990;SDS011;6560;57.692;11.958;2023-04-23T09:59:25;7.63;;;6.57;;
12990;SDS011;6560;57.692;11.958;2023-04-23T10:01:52;10.10;;;8.00;;
12990;SDS011;6560;57.692;11.958;2023-04-23T10:04:21;8.57;;;7.63;;
12990;SDS011;6560;57.692;11.958;2023-04-23T10:06:57;7.10;;;6.40;;
12990;SDS011;6560;57.692;11.958;2023-04-23T10:09:32;8.03;;;6.57;;
12990;SDS011;6560;57.692;11.958;2023-04-23T10:11:59;10.63;;;7.27;;
12990;SDS011;6560;57.692;11.958;2023-04-23T10:14:28;9.07;;;7.30;;
12990;SDS011;6560;57.692;11.958;2023-04-23T10:17:01;8.93;;;7.50;;
12990;SDS011;6560;57.692;11.958;2023-04-23T10:19:29;7.37;;;5.90;;
12990;SDS011;6560;57.692;11.958;2023-04-23T10:22:00;8.07;;;6.23;;
12990;SDS011;6560;57.692;11.958;2023-04-23T10:24:32;8.93;;;6.07;;
12990;SDS011;6560;57.692;11.958;2023-04-23T10:27:00;6.90;;;6.30;;
12990;SDS011;6560;57.692;11.958;2023-04-23T10:29:31;9.93;;;6.30;;
12990;SDS011;6560;57.692;11.958;2023-04-23T10:31:58;8.63;;;6.77;;
12990;SDS011;6560;57.692;11.958;2023-04-23T10:34:27;6.77;;;6.10;;
12990;SDS011;6560;57.692;11.958;2023-04-23T10:36:55;7.23;;;5.97;;
12990;SDS011;6560;57.692;11.958;2023-04-23T10:39:23;7.30;;;6.37;;
12990;SDS011;6560;57.692;11.958;2023-04-23T10:41:52;7.90;;;6.43;;
12990;SDS011;6560;57.692;11.958;2023-04-23T10:44:19;6.30;;;5.67;;
12990;SDS011;6560;57.692;11.958;2023-04-23T10:46:52;6.70;;;6.10;;
12990;SDS011;6560;57.692;11.958;2023-04-23T10:49:22;9.73;;;6.73;;
12990;SDS011;6560;57.692;11.958;2023-04-23T10:51:48;8.43;;;6.20;;
12990;SDS011;6560;57.692;11.958;2023-04-23T10:54:31;10.07;;;6.67;;
12990;SDS011;6560;57.692;11.958;2023-04-23T10:56:59;6.43;;;5.83;;
12990;SDS011;6560;57.692;11.958;2023-04-23T10:59:27;9.43;;;6.30;;
12990;SDS011;6560;57.692;11.958;2023-04-23T11:01:55;6.27;;;5.60;;
12990;SDS011;6560;57.692;11.958;2023-04-23T11:04:23;10.33;;;6.93;;
12990;SDS011;6560;57.692;11.958;2023-04-23T11:06:53;8.63;;;6.37;;
12990;SDS011;6560;57.692;11.958;2023-04-23T11:09:47;11.50;;;6.33;;
12990;SDS011;6560;57.692;11.958;2023-04-23T11:14:46;9.23;;;7.00;;
12990;SDS011;6560;57.692;11.958;2023-04-23T11:17:14;9.07;;;7.67;;
12990;SDS011;6560;57.692;11.958;2023-04-23T11:19:43;8.17;;;7.03;;
12990;SDS011;6560;57.692;11.958;2023-04-23T11:22:47;10.73;;;7.17;;
12990;SDS011;6560;57.692;11.958;2023-04-23T11:25:20;6.27;;;5.57;;
12990;SDS011;6560;57.692;11.958;2023-04-23T11:27:48;8.67;;;5.80;;
12990;SDS011;6560;57.692;11.958;2023-04-23T11:30:19;5.27;;;4.77;;
12990;SDS011;6560;57.692;11.958;2023-04-23T11:32:48;6.27;;;5.67;;
12990;SDS011;6560;57.692;11.958;2023-04-23T11:35:17;9.00;;;6.23;;
12990;SDS011;6560;57.692;11.958;2023-04-23T11:37:44;6.30;;;5.70;;
12990;SDS011;6560;57.692;11.958;2023-04-23T11:40:14;8.50;;;5.30;;
12990;SDS011;6560;57.692;11.958;2023-04-23T11:42:45;7.23;;;6.53;;
12990;SDS011;6560;57.692;11.958;2023-04-23T11:45:16;6.63;;;6.03;;
12990;SDS011;6560;57.692;11.958;2023-04-23T11:47:43;8.20;;;6.73;;
12990;SDS011;6560;57.692;11.958;2023-04-23T11:50:10;7.63;;;6.83;;
12990;SDS011;6560;57.692;11.958;2023-04-23T11:52:54;7.43;;;6.63;;
12990;SDS011;6560;57.692;11.958;2023-04-23T11:55:21;9.50;;;7.43;;
12990;SDS011;6560;57.692;11.958;2023-04-23T11:57:50;8.27;;;7.23;;
12990;SDS011;6560;57.692;11.958;2023-04-23T12:00:17;6.80;;;6.10;;
12990;SDS011;6560;57.692;11.958;2023-04-23T12:02:51;7.33;;;5.73;;
12990;SDS011;6560;57.692;11.958;2023-04-23T12:05:21;7.13;;;5.57;;
12990;SDS011;6560;57.692;11.958;2023-04-23T12:07:51;9.13;;;5.97;;
12990;SDS011;6560;57.692;11.958;2023-04-23T12:10:18;8.53;;;5.83;;
12990;SDS011;6560;57.692;11.958;2023-04-23T12:12:47;7.53;;;5.60;;
12990;SDS011;6560;57.692;11.958;2023-04-23T12:15:14;6.00;;;5.23;;
12990;SDS011;6560;57.692;11.958;2023-04-23T12:17:39;5.87;;;5.37;;
12990;SDS011;6560;57.692;11.958;2023-04-23T12:20:05;5.73;;;5.23;;
12990;SDS011;6560;57.692;11.958;2023-04-23T12:22:36;5.70;;;5.20;;
12990;SDS011;6560;57.692;11.958;2023-04-23T12:25:04;5.70;;;5.17;;
12990;SDS011;6560;57.692;11.958;2023-04-23T12:27:37;7.07;;;5.50;;
12990;SDS011;6560;57.692;11.958;2023-04-23T12:30:04;6.20;;;5.50;;
12990;SDS011;6560;57.692;11.958;2023-04-23T12:32:32;7.33;;;5.40;;
12990;SDS011;6560;57.692;11.958;2023-04-23T12:34:58;9.67;;;6.00;;
12990;SDS011;6560;57.692;11.958;2023-04-23T12:37:24;9.63;;;6.10;;
12990;SDS011;6560;57.692;11.958;2023-04-23T12:39:51;10.23;;;6.47;;
12990;SDS011;6560;57.692;11.958;2023-04-23T12:42:18;7.07;;;6.13;;
12990;SDS011;6560;57.692;11.958;2023-04-23T12:44:44;6.43;;;5.80;;
12990;SDS011;6560;57.692;11.958;2023-04-23T12:47:10;8.27;;;7.00;;
12990;SDS011;6560;57.692;11.958;2023-04-23T12:49:36;7.97;;;5.83;;
12990;SDS011;6560;57.692;11.958;2023-04-23T12:52:04;6.73;;;6.03;;
12990;SDS011;6560;57.692;11.958;2023-04-23T12:54:31;7.30;;;6.60;;
12990;SDS011;6560;57.692;11.958;2023-04-23T12:56:58;9.03;;;6.60;;
12990;SDS011;6560;57.692;11.958;2023-04-23T12:59:26;8.93;;;7.60;;
12990;SDS011;6560;57.692;11.958;2023-04-23T13:01:52;9.20;;;8.07;;
12990;SDS011;6560;57.692;11.958;2023-04-23T13:04:18;17.80;;;8.53;;
12990;SDS011;6560;57.692;11.958;2023-04-23T13:06:45;10.10;;;8.10;;
12990;SDS011;6560;57.692;11.958;2023-04-23T13:09:11;9.57;;;7.57;;
12990;SDS011;6560;57.692;11.958;2023-04-23T13:11:37;10.37;;;7.00;;
12990;SDS011;6560;57.692;11.958;2023-04-23T13:14:04;10.17;;;7.30;;
12990;SDS011;6560;57.692;11.958;2023-04-23T13:16:30;8.87;;;8.00;;
12990;SDS011;6560;57.692;11.958;2023-04-23T13:18:55;10.37;;;7.70;;
12990;SDS011;6560;57.692;11.958;2023-04-23T13:21:21;12.73;;;7.60;;
12990;SDS011;6560;57.692;11.958;2023-04-23T13:23:46;10.83;;;6.87;;
12990;SDS011;6560;57.692;11.958;2023-04-23T13:26:12;9.17;;;6.97;;
12990;SDS011;6560;57.692;11.958;2023-04-23T13:28:39;10.57;;;7.20;;
12990;SDS011;6560;57.692;11.958;2023-04-23T13:31:05;10.90;;;7.10;;
12990;SDS011;6560;57.692;11.958;2023-04-23T13:33:31;10.10;;;7.20;;
12990;SDS011;6560;57.692;11.958;2023-04-23T13:35:59;7.50;;;6.67;;
12990;SDS011;6560;57.692;11.958;2023-04-23T13:38:25;7.60;;;6.70;;
12990;SDS011;6560;57.692;11.958;2023-04-23T13:40:52;7.20;;;6.07;;
12990;SDS011;6560;57.692;11.958;2023-04-23T13:43:18;7.17;;;5.97;;
12990;SDS011;6560;57.692;11.958;2023-04-23T13:45:44;9.32;;;6.75;;
12990;SDS011;6560;57.692;11.958;2023-04-23T13:48:33;6.90;;;6.23;;
12990;SDS011;6560;57.692;11.958;2023-04-23T13:51:22;7.63;;;6.28;;
12990;SDS011;6560;57.692;11.958;2023-04-23T13:53:47;7.97;;;6.53;;
12990;SDS011;6560;57.692;11.958;2023-04-23T13:56:13;6.93;;;6.22;;
12990;SDS011;6560;57.692;11.958;2023-04-23T13:58:39;7.53;;;6.33;;
12990;SDS011;6560;57.692;11.958;2023-04-23T14:01:07;9.50;;;6.65;;
12990;SDS011;6560;57.692;11.958;2023-04-23T14:03:35;6.95;;;6.07;;
12990;SDS011;6560;57.692;11.958;2023-04-23T14:06:04;7.32;;;6.63;;
12990;SDS011;6560;57.692;11.958;2023-04-23T14:08:30;7.38;;;6.63;;
12990;SDS011;6560;57.692;11.958;2023-04-23T14:10:56;7.38;;;6.50;;
12990;SDS011;6560;57.692;11.958;2023-04-23T14:13:22;7.90;;;7.15;;
12990;SDS011;6560;57.692;11.958;2023-04-23T14:15:47;7.13;;;6.28;;
12990;SDS011;6560;57.692;11.958;2023-04-23T14:18:13;9.20;;;8.30;;
12990;SDS011;6560;57.692;11.958;2023-04-23T14:20:39;9.57;;;8.18;;
12990;SDS011;6560;57.692;11.958;2023-04-23T14:26:09;8.97;;;8.07;;
12990;SDS011;6560;57.692;11.958;2023-04-23T14:28:47;11.27;;;8.37;;
12990;SDS011;6560;57.692;11.958;2023-04-23T14:31:15;10.53;;;9.53;;
12990;SDS011;6560;57.692;11.958;2023-04-23T14:33:41;11.27;;;9.55;;
12990;SDS011;6560;57.692;11.958;2023-04-23T14:36:06;11.90;;;9.27;;
12990;SDS011;6560;57.692;11.958;2023-04-23T14:38:32;11.73;;;9.07;;
12990;SDS011;6560;57.692;11.958;2023-04-23T14:40:58;10.65;;;9.40;;
12990;SDS011;6560;57.692;11.958;2023-04-23T14:43:23;12.80;;;10.80;;
12990;SDS011;6560;57.692;11.958;2023-04-23T14:45:52;11.70;;;10.60;;
12990;SDS011;6560;57.692;11.958;2023-04-23T14:48:18;12.18;;;10.25;;
12990;SDS011;6560;57.692;11.958;2023-04-23T14:50:44;10.82;;;9.73;;
12990;SDS011;6560;57.692;11.958;2023-04-23T14:53:10;12.43;;;9.73;;
12990;SDS011;6560;57.692;11.958;2023-04-23T14:55:38;10.15;;;9.15;;
12990;SDS011;6560;57.692;11.958;2023-04-23T14:58:07;15.68;;;10.90;;